createdAt,value
2016-10-10T00:01:54.895Z,92.27
2016-10-10T00:06:51.761Z,92.46
2016-10-10T00:11:48.304Z,92.27
2016-10-10T00:16:45.585Z,91.80
2016-10-10T00:21:42.010Z,91.89
2016-10-10T00:26:38.860Z,91.70
2016-10-10T00:31:35.522Z,91.61
2016-10-10T00:36:32.586Z,91.32
2016-10-10T00:41:29.088Z,92.08
2016-10-10T00:46:25.586Z,92.36
2016-10-10T00:51:22.509Z,92.65
2016-10-10T00:56:20.133Z,93.04
2016-10-10T01:01:16.303Z,93.23
2016-10-10T01:06:12.909Z,93.32
2016-10-10T01:11:09.055Z,94.03
2016-10-10T01:16:05.654Z,93.98
2016-10-10T01:21:03.520Z,93.94
2016-10-10T01:25:59.629Z,94.22
2016-10-10T01:30:57.197Z,95.27
2016-10-10T01:35:53.517Z,95.36
2016-10-10T01:40:50.234Z,96.69
2016-10-10T01:45:46.653Z,97.69
2016-10-10T01:50:42.676Z,98.45
2016-10-10T01:55:39.269Z,99.40
2016-10-10T02:00:35.725Z,99.59
2016-10-10T02:05:32.286Z,99.99
2016-10-10T02:10:28.451Z,99.99
2016-10-10T02:15:25.125Z,99.78
2016-10-10T02:20:24.557Z,99.50
2016-10-10T02:25:21.380Z,99.88
2016-10-10T02:30:17.164Z,99.99
2016-10-10T02:35:13.437Z,99.99
2016-10-10T02:40:10.109Z,99.99
2016-10-10T02:45:06.602Z,99.99
2016-10-10T02:50:03.114Z,99.99
2016-10-10T02:54:59.491Z,99.99
2016-10-10T02:59:56.145Z,99.99
2016-10-10T03:04:52.691Z,99.99
2016-10-10T03:09:49.305Z,99.99
2016-10-10T03:14:45.737Z,99.99
2016-10-10T03:19:42.297Z,99.99
2016-10-10T03:24:38.541Z,99.99
2016-10-10T03:29:35.174Z,99.99
2016-10-10T03:34:31.712Z,99.99
2016-10-10T03:39:28.128Z,99.99
2016-10-10T03:44:24.772Z,99.99
2016-10-10T03:49:21.150Z,99.99
2016-10-10T03:54:17.645Z,99.99
2016-10-10T03:59:14.039Z,99.99
2016-10-10T04:04:10.298Z,99.99
2016-10-10T04:09:06.635Z,99.99
2016-10-10T04:14:03.290Z,99.99
2016-10-10T04:18:59.668Z,99.99
2016-10-10T04:23:56.347Z,99.99
2016-10-10T04:28:52.858Z,99.99
2016-10-10T04:33:49.582Z,99.99
2016-10-10T04:38:46.360Z,99.99
2016-10-10T04:43:43.098Z,99.99
2016-10-10T04:48:39.608Z,99.99
2016-10-10T04:53:36.277Z,99.99
2016-10-10T04:58:32.612Z,99.99
2016-10-10T05:03:29.073Z,99.99
2016-10-10T05:08:25.556Z,99.99
2016-10-10T05:13:22.046Z,99.99
2016-10-10T05:18:18.563Z,99.99
2016-10-10T05:23:14.675Z,99.99
2016-10-10T05:28:11.320Z,99.99
2016-10-10T05:33:07.822Z,99.99
2016-10-10T05:38:04.168Z,99.99
2016-10-10T05:43:00.598Z,99.99
2016-10-10T05:47:56.955Z,99.99
2016-10-10T05:52:53.384Z,99.99
2016-10-10T05:57:49.985Z,99.99
2016-10-10T06:02:46.381Z,99.99
2016-10-10T06:07:42.587Z,99.99
2016-10-10T06:12:39.019Z,99.99
2016-10-10T06:17:35.559Z,99.99
2016-10-10T06:22:31.907Z,99.99
2016-10-10T06:27:28.582Z,99.99
2016-10-10T06:32:25.239Z,99.99
2016-10-10T06:37:21.572Z,99.99
2016-10-10T06:42:18.937Z,99.99
2016-10-10T06:47:15.495Z,99.99
2016-10-10T06:52:12.193Z,99.99
2016-10-10T06:57:08.913Z,99.99
2016-10-10T07:02:05.748Z,99.99
2016-10-10T07:07:02.935Z,99.99
2016-10-10T07:11:59.421Z,99.99
2016-10-10T07:16:55.524Z,99.99
2016-10-10T07:21:52.489Z,99.99
2016-10-10T07:26:49.238Z,99.99
2016-10-10T07:31:45.981Z,99.99
2016-10-10T07:36:42.554Z,99.99
2016-10-10T07:41:39.401Z,99.99
2016-10-10T07:51:38.170Z,99.99
2016-10-10T07:56:34.740Z,99.99
2016-10-10T08:01:31.312Z,99.99
2016-10-10T08:06:28.192Z,99.99
2016-10-10T08:11:24.951Z,99.99
2016-10-10T08:16:24.195Z,99.69
2016-10-10T08:21:20.604Z,97.83
2016-10-10T08:26:17.163Z,97.36
2016-10-10T08:31:14.879Z,96.22
2016-10-10T08:36:12.106Z,96.31
2016-10-10T08:41:08.433Z,97.88
2016-10-10T08:46:05.128Z,97.08
2016-10-10T08:51:02.076Z,94.84
2016-10-10T08:55:58.951Z,93.04
2016-10-10T09:00:55.488Z,91.94
2016-10-10T09:05:52.093Z,91.22
2016-10-10T09:10:48.538Z,94.32
2016-10-10T09:15:45.076Z,92.08
2016-10-10T09:20:41.945Z,89.94
2016-10-10T09:25:38.738Z,89.75
2016-10-10T09:30:35.517Z,87.98
2016-10-10T09:35:32.758Z,85.74
2016-10-10T09:40:29.353Z,85.36
2016-10-10T09:45:26.232Z,84.31
2016-10-10T09:50:23.635Z,84.60
2016-10-10T09:55:20.604Z,81.49
2016-10-10T10:00:18.046Z,82.41
2016-10-10T10:05:14.015Z,84.65
2016-10-10T10:10:10.454Z,86.08
2016-10-10T10:15:06.808Z,86.70
2016-10-10T10:20:03.432Z,86.22
2016-10-10T10:24:59.344Z,86.70
2016-10-10T10:29:55.560Z,85.47
2016-10-10T10:34:51.649Z,84.23
2016-10-10T10:39:50.356Z,84.52
2016-10-10T10:44:47.251Z,82.37
2016-10-10T10:49:43.451Z,80.84
2016-10-10T10:54:40.153Z,77.98
2016-10-10T10:59:37.186Z,72.28
2016-10-10T11:04:34.404Z,69.62
2016-10-10T11:09:31.005Z,70.47
2016-10-10T11:14:28.184Z,65.89
2016-10-10T11:19:24.309Z,69.45
2016-10-10T11:24:20.325Z,71.07
2016-10-10T11:29:16.734Z,72.56
2016-10-10T11:34:13.560Z,71.73
2016-10-10T11:39:10.504Z,69.07
2016-10-10T11:44:07.091Z,69.20
2016-10-10T11:49:04.275Z,68.44
2016-10-10T11:54:01.193Z,68.44
2016-10-10T11:58:58.564Z,67.77
2016-10-10T12:03:55.294Z,67.04
2016-10-10T12:08:54.131Z,66.85
2016-10-10T12:13:50.755Z,66.02
2016-10-10T12:18:47.803Z,66.12
2016-10-10T12:23:44.276Z,64.88
2016-10-10T12:28:41.055Z,64.69
2016-10-10T12:33:37.317Z,65.55
2016-10-10T12:38:34.378Z,67.23
2016-10-10T12:43:30.577Z,65.17
2016-10-10T12:48:27.542Z,62.02
2016-10-10T12:53:24.276Z,64.50
2016-10-10T12:58:20.630Z,65.33
2016-10-10T13:03:16.692Z,66.75
2016-10-10T13:08:13.350Z,67.48
2016-10-10T13:13:10.864Z,68.15
2016-10-10T13:18:08.433Z,68.53
2016-10-10T13:23:04.317Z,68.30
2016-10-10T13:28:00.688Z,68.50
2016-10-10T13:32:57.175Z,69.17
2016-10-10T13:37:53.882Z,69.01
2016-10-10T13:42:52.088Z,67.86
2016-10-10T13:47:48.503Z,67.68
2016-10-10T13:52:45.179Z,67.04
2016-10-10T13:57:41.947Z,66.38
2016-10-10T14:02:38.735Z,66.28
2016-10-10T14:07:36.320Z,65.23
2016-10-10T14:12:32.441Z,66.38
2016-10-10T14:17:28.845Z,66.66
2016-10-10T14:22:25.546Z,66.47
2016-10-10T14:27:22.107Z,66.38
2016-10-10T14:32:18.682Z,66.38
2016-10-10T14:37:16.680Z,66.60
2016-10-10T14:42:12.708Z,65.93
2016-10-10T14:47:09.412Z,65.99
2016-10-10T14:52:05.799Z,66.38
2016-10-10T14:57:03.164Z,67.29
2016-10-10T15:01:59.266Z,67.86
2016-10-10T15:06:55.681Z,67.86
2016-10-10T15:11:52.642Z,67.20
2016-10-10T15:16:49.565Z,66.91
2016-10-10T15:21:45.927Z,67.29
2016-10-10T15:26:42.653Z,68.30
2016-10-10T15:31:40.884Z,68.15
2016-10-10T15:36:37.405Z,68.21
2016-10-10T15:41:34.304Z,69.45
2016-10-10T15:46:32.223Z,69.74
2016-10-10T15:51:28.359Z,71.22
2016-10-10T15:56:24.947Z,71.22
2016-10-10T16:01:21.587Z,72.37
2016-10-10T16:06:18.057Z,75.32
2016-10-10T16:11:15.150Z,77.00
2016-10-10T16:16:11.157Z,78.14
2016-10-10T16:21:07.828Z,79.09
2016-10-10T16:26:04.639Z,80.04
2016-10-10T16:31:01.015Z,80.42
2016-10-10T16:35:57.333Z,81.28
2016-10-10T16:40:53.760Z,82.00
2016-10-10T16:45:50.268Z,82.57
2016-10-10T16:50:46.794Z,82.76
2016-10-10T16:55:43.322Z,83.90
2016-10-10T17:00:39.802Z,84.37
2016-10-10T17:05:36.926Z,84.56
2016-10-10T17:10:33.383Z,84.85
2016-10-10T17:15:29.954Z,85.33
2016-10-10T17:20:28.599Z,85.52
2016-10-10T17:25:24.593Z,84.95
2016-10-10T17:30:20.990Z,85.42
2016-10-10T17:35:17.507Z,85.80
2016-10-10T17:40:14.059Z,86.14
2016-10-10T17:45:13.020Z,85.76
2016-10-10T17:50:08.462Z,86.24
2016-10-10T17:55:05.147Z,87.28
2016-10-10T18:00:01.374Z,88.23
2016-10-10T18:04:57.908Z,88.23
2016-10-10T18:09:54.681Z,89.18
2016-10-10T18:14:50.975Z,89.80
2016-10-10T18:19:47.452Z,90.47
2016-10-10T18:24:43.968Z,90.56
2016-10-10T18:29:40.566Z,90.33
2016-10-10T18:34:36.616Z,89.75
2016-10-10T18:39:33.218Z,89.66
2016-10-10T18:44:29.741Z,90.61
2016-10-10T18:49:26.569Z,89.94
2016-10-10T18:54:22.973Z,90.52
2016-10-10T18:59:20.218Z,90.70
2016-10-10T19:04:16.782Z,90.80
2016-10-10T19:09:13.379Z,90.94
2016-10-10T19:14:10.146Z,90.99
2016-10-10T19:19:06.575Z,90.33
2016-10-10T19:24:03.139Z,91.08
2016-10-10T19:28:59.548Z,90.42
2016-10-10T19:33:56.110Z,90.80
2016-10-10T19:38:52.888Z,90.70
2016-10-10T19:43:49.352Z,90.70
2016-10-10T19:48:45.963Z,90.52
2016-10-10T19:53:42.608Z,90.99
2016-10-10T19:58:38.936Z,90.42
2016-10-10T20:03:36.881Z,90.70
2016-10-10T20:08:33.148Z,90.61
2016-10-10T20:13:29.698Z,90.61
2016-10-10T20:18:26.128Z,90.80
2016-10-10T20:23:22.458Z,90.37
2016-10-10T20:28:18.725Z,91.71
2016-10-10T20:33:15.145Z,91.99
2016-10-10T20:38:12.702Z,91.80
2016-10-10T20:43:09.001Z,91.52
2016-10-10T20:48:05.308Z,91.42
2016-10-10T20:53:01.948Z,92.18
2016-10-10T20:57:58.610Z,92.46
2016-10-10T21:02:55.323Z,93.23
2016-10-10T21:07:51.752Z,93.23
2016-10-10T21:12:48.297Z,93.41
2016-10-10T21:17:44.847Z,94.74
2016-10-10T21:22:41.356Z,95.55
2016-10-10T21:27:38.622Z,95.27
2016-10-10T21:32:34.754Z,96.03
2016-10-10T21:37:30.900Z,96.69
2016-10-10T21:42:27.322Z,96.22
2016-10-10T21:47:25.608Z,96.12
2016-10-10T21:52:21.889Z,96.03
2016-10-10T21:57:19.985Z,95.94
2016-10-10T22:02:16.308Z,96.60
2016-10-10T22:07:12.730Z,96.50
2016-10-10T22:12:09.182Z,96.98
2016-10-10T22:17:06.221Z,97.50
2016-10-10T22:22:02.384Z,98.07
2016-10-10T22:26:58.874Z,98.45
2016-10-10T22:31:55.607Z,99.02
2016-10-10T22:36:51.896Z,98.83
2016-10-10T22:41:48.252Z,99.02
2016-10-10T22:46:44.769Z,99.11
2016-10-10T22:51:41.625Z,99.54
2016-10-10T22:56:37.741Z,99.73
2016-10-10T23:01:33.866Z,99.99
2016-10-10T23:06:31.284Z,99.99
2016-10-10T23:11:27.767Z,99.99
2016-10-10T23:16:24.351Z,99.99
2016-10-10T23:21:21.239Z,99.99
2016-10-10T23:26:17.909Z,99.99
2016-10-10T23:31:14.368Z,99.99
2016-10-10T23:36:10.908Z,99.99
2016-10-10T23:41:07.316Z,99.99
2016-10-10T23:46:03.619Z,99.99
2016-10-10T23:51:00.825Z,99.99
2016-10-10T23:55:56.879Z,99.99
